Terminal Aerodrome Forecast
Issued by NWS Twin Cities, MN

Home | Current Version | Previous Version | Text Only | Print | Product List | Glossary On
Versions: 1 2 3 4 5 6 7 8 9 10 11 12 13 14 15 16 17 18 19 20
000
FTUS43 KMPX 120525
TAFSTC
TAF
KSTC 120525Z 1206/1306 31007KT P6SM SCT250
     FM121300 29004KT P6SM BKN090
     FM121800 20006KT P6SM VCSH OVC025
     FM122300 15006KT P6SM SCT050 BKN100=

USA.gov is the U.S. government's official web portal to all federal, state and local government web resources and services.